createdAt,value
2018-07-01T16:03:20.835Z,0.77
2018-07-01T16:05:48.978Z,0.90
2018-07-01T16:08:17.121Z,0.70
2018-07-01T16:10:45.280Z,0.87
2018-07-01T16:13:13.415Z,1.00
2018-07-01T16:15:41.623Z,1.00
2018-07-01T16:18:09.775Z,1.60
2018-07-01T16:20:37.895Z,1.10
2018-07-01T16:23:06.048Z,1.00
2018-07-01T16:25:37.310Z,0.87
2018-07-01T16:28:10.764Z,0.87
2018-07-01T16:30:38.903Z,0.97
2018-07-01T16:33:06.840Z,1.00
2018-07-01T16:35:34.722Z,0.90
2018-07-01T16:38:02.690Z,0.90
2018-07-01T16:40:30.573Z,1.00
2018-07-01T16:42:58.712Z,0.97
2018-07-01T16:45:27.620Z,1.03
2018-07-01T16:47:56.544Z,1.00
2018-07-01T16:50:24.662Z,0.60
2018-07-01T16:52:52.796Z,0.80
2018-07-01T16:55:21.331Z,0.80
2018-07-01T16:57:49.470Z,0.80
2018-07-01T17:00:18.354Z,1.00
2018-07-01T17:02:46.499Z,0.80
2018-07-01T17:05:14.726Z,0.60
2018-07-01T17:07:42.765Z,0.80
2018-07-01T17:10:10.922Z,0.80
2018-07-01T17:12:39.074Z,0.90
2018-07-01T17:15:07.191Z,1.03
2018-07-01T17:17:35.395Z,1.20
2018-07-01T17:20:03.487Z,1.03
2018-07-01T17:22:31.437Z,0.90
2018-07-01T17:24:59.542Z,1.90
2018-07-01T17:27:27.680Z,0.97
2018-07-01T17:29:55.809Z,1.50
2018-07-01T17:32:29.393Z,2.40
2018-07-01T17:34:57.528Z,1.10
2018-07-01T17:37:25.667Z,1.20
2018-07-01T17:39:53.803Z,1.10
2018-07-01T17:42:21.939Z,0.97
2018-07-01T17:44:50.101Z,1.00
2018-07-01T17:47:18.254Z,1.00
2018-07-01T17:49:46.547Z,1.30
2018-07-01T17:52:14.743Z,1.00
2018-07-01T17:54:42.639Z,1.30
2018-07-01T17:57:10.765Z,1.30
2018-07-01T17:59:38.887Z,1.37
2018-07-01T18:02:07.169Z,0.90
2018-07-01T18:04:35.375Z,0.80
2018-07-01T18:07:03.512Z,1.00
2018-07-01T18:09:31.670Z,1.17
2018-07-01T18:11:59.778Z,1.87
2018-07-01T18:14:27.955Z,2.10
2018-07-01T18:16:56.103Z,2.17
2018-07-01T18:19:24.223Z,1.73
2018-07-01T18:22:16.926Z,1.20
2018-07-01T18:24:48.928Z,1.97
2018-07-01T18:26:48.607Z,1.10
2018-07-01T18:29:19.278Z,1.20
2018-07-01T18:31:44.915Z,1.23
2018-07-01T18:34:12.989Z,1.10
2018-07-01T18:36:41.118Z,1.30
2018-07-01T18:39:09.722Z,1.90
2018-07-01T18:41:37.945Z,6.03
2018-07-01T18:44:06.354Z,4.43
2018-07-01T18:46:34.522Z,2.50
2018-07-01T18:49:02.650Z,1.90
2018-07-01T18:51:30.791Z,1.40
2018-07-01T18:53:58.915Z,1.37
2018-07-01T18:56:27.106Z,1.60
2018-07-01T18:58:55.247Z,1.47
2018-07-01T19:01:23.351Z,1.10
2018-07-01T19:03:51.481Z,1.33
2018-07-01T19:06:19.607Z,1.00
2018-07-01T19:08:47.798Z,1.00
2018-07-01T19:11:15.882Z,1.10
2018-07-01T19:13:44.017Z,1.20
2018-07-01T19:16:12.154Z,1.20
2018-07-01T19:18:40.277Z,1.13
2018-07-01T19:21:09.243Z,1.37
2018-07-01T19:23:37.952Z,0.90
2018-07-01T19:26:06.613Z,1.10
2018-07-01T19:28:34.898Z,0.97
2018-07-01T19:31:03.034Z,1.10
2018-07-01T19:33:31.214Z,1.17
2018-07-01T19:35:59.366Z,1.30
2018-07-01T19:38:27.495Z,1.63
2018-07-01T19:40:55.623Z,1.53
2018-07-01T19:43:23.933Z,1.50
2018-07-01T19:45:51.942Z,1.40
2018-07-01T19:48:20.085Z,1.27
2018-07-01T19:50:48.433Z,1.20
2018-07-01T19:53:16.751Z,1.17
2018-07-01T19:55:44.870Z,1.40
2018-07-01T19:58:13.086Z,1.30
2018-07-01T20:00:41.205Z,1.30
2018-07-01T20:03:09.350Z,1.30
2018-07-01T20:05:37.222Z,1.20
2018-07-01T20:08:06.085Z,1.07
2018-07-01T20:10:34.492Z,1.10
2018-07-01T20:13:02.938Z,1.03
2018-07-01T20:15:31.051Z,1.30
2018-07-01T20:17:59.191Z,1.10
2018-07-01T20:20:27.314Z,0.90
2018-07-01T20:22:55.467Z,1.30
2018-07-01T20:25:23.615Z,1.10
2018-07-01T20:27:51.546Z,1.13
2018-07-01T20:30:19.764Z,1.10
2018-07-01T20:32:47.804Z,1.10
2018-07-01T20:35:15.990Z,1.13
2018-07-01T20:37:43.922Z,1.13
2018-07-01T20:40:12.034Z,1.20
2018-07-01T20:42:39.924Z,1.07
2018-07-01T20:45:08.091Z,1.37
2018-07-01T20:47:36.220Z,1.10
2018-07-01T20:50:04.392Z,1.20
2018-07-01T20:52:32.504Z,1.00
2018-07-01T20:55:00.672Z,0.97
2018-07-01T20:57:28.806Z,1.03
2018-07-01T20:59:56.964Z,1.00
2018-07-01T21:02:25.078Z,1.10
2018-07-01T21:04:52.977Z,1.03
2018-07-01T21:07:22.028Z,0.90
2018-07-01T21:09:50.154Z,1.17
2018-07-01T21:12:18.275Z,0.97
2018-07-01T21:14:46.412Z,0.90
2018-07-01T21:17:14.518Z,0.87
2018-07-01T21:19:42.656Z,1.07
2018-07-01T21:22:10.791Z,0.97
2018-07-01T21:24:38.932Z,1.10
2018-07-01T21:27:07.187Z,1.00
2018-07-01T21:29:35.347Z,1.00
2018-07-01T21:32:03.443Z,1.10
2018-07-01T21:34:31.559Z,0.83
2018-07-01T21:36:59.689Z,1.00
2018-07-01T21:39:27.836Z,0.87
2018-07-01T21:41:55.993Z,0.67
2018-07-01T21:44:24.122Z,0.70
2018-07-01T21:46:52.225Z,1.00
2018-07-01T21:49:20.372Z,0.90
2018-07-01T21:51:48.248Z,0.90
2018-07-01T21:54:16.407Z,1.20
2018-07-01T21:56:44.296Z,1.07
2018-07-01T21:59:12.450Z,0.80
2018-07-01T22:01:40.391Z,0.90
2018-07-01T22:04:08.514Z,0.73
2018-07-01T22:06:41.967Z,0.90
2018-07-01T22:09:10.095Z,1.00
2018-07-01T22:11:53.159Z,0.83
2018-07-01T22:14:26.334Z,0.90
2018-07-01T22:16:54.497Z,0.87
2018-07-01T22:19:22.801Z,0.93
2018-07-01T22:21:51.891Z,1.00
2018-07-01T22:24:20.039Z,1.10
2018-07-01T22:26:48.162Z,1.00
2018-07-01T22:29:17.127Z,0.90
2018-07-01T22:31:45.278Z,1.00
2018-07-01T22:34:14.606Z,1.00
2018-07-01T22:36:43.489Z,1.10
2018-07-01T22:39:14.661Z,0.87
2018-07-01T22:41:43.429Z,0.97
2018-07-01T22:44:11.563Z,0.97
2018-07-01T22:46:40.200Z,1.20
2018-07-01T22:49:08.328Z,1.20
2018-07-01T22:51:36.474Z,0.90
2018-07-01T22:54:04.994Z,0.90
2018-07-01T22:56:33.603Z,0.83
2018-07-01T22:59:01.746Z,0.80
2018-07-01T23:01:29.905Z,0.90
2018-07-01T23:03:58.035Z,0.77
2018-07-01T23:06:26.494Z,1.00
2018-07-01T23:08:54.773Z,0.77
2018-07-01T23:11:22.910Z,0.87
2018-07-01T23:13:51.039Z,0.90
2018-07-01T23:16:18.933Z,0.90
2018-07-01T23:18:47.073Z,0.93
2018-07-01T23:21:15.137Z,0.90
2018-07-01T23:23:43.354Z,0.90
2018-07-01T23:26:11.498Z,0.90
2018-07-01T23:28:39.660Z,1.13
2018-07-01T23:31:07.782Z,1.00
2018-07-01T23:33:35.909Z,1.00
2018-07-01T23:36:04.067Z,0.97
2018-07-01T23:38:32.198Z,0.90
2018-07-01T23:41:00.343Z,0.90
2018-07-01T23:43:28.460Z,0.90
2018-07-01T23:45:56.624Z,0.80
2018-07-01T23:48:24.745Z,1.10
2018-07-01T23:50:52.902Z,0.90
2018-07-01T23:53:21.023Z,1.20
2018-07-01T23:58:23.683Z,0.83
